sensor_id;sensor_type;location;lat;lon;timestamp;P1;durP1;ratioP1;P2;durP2;ratioP2
72201;SDS011;60105;54.956;73.412;2023-05-16T00:03:16;47.66;;;23.20;;
72201;SDS011;60105;54.956;73.412;2023-05-16T00:06:18;37.10;;;23.23;;
72201;SDS011;60105;54.956;73.412;2023-05-16T00:09:19;51.50;;;24.60;;
72201;SDS011;60105;54.956;73.412;2023-05-16T00:12:21;43.13;;;23.85;;
72201;SDS011;60105;54.956;73.412;2023-05-16T00:15:22;49.40;;;22.30;;
72201;SDS011;60105;54.956;73.412;2023-05-16T00:18:24;39.88;;;20.98;;
72201;SDS011;60105;54.956;73.412;2023-05-16T00:21:26;45.75;;;23.85;;
72201;SDS011;60105;54.956;73.412;2023-05-16T00:24:27;43.88;;;22.83;;
72201;SDS011;60105;54.956;73.412;2023-05-16T00:27:29;41.57;;;22.47;;
72201;SDS011;60105;54.956;73.412;2023-05-16T00:30:30;46.60;;;24.02;;
72201;SDS011;60105;54.956;73.412;2023-05-16T00:33:32;51.73;;;23.20;;
72201;SDS011;60105;54.956;73.412;2023-05-16T00:36:34;46.72;;;23.67;;
72201;SDS011;60105;54.956;73.412;2023-05-16T00:39:36;49.97;;;24.67;;
72201;SDS011;60105;54.956;73.412;2023-05-16T00:43:16;42.38;;;25.17;;
72201;SDS011;60105;54.956;73.412;2023-05-16T00:46:17;52.45;;;26.50;;
72201;SDS011;60105;54.956;73.412;2023-05-16T00:49:18;44.70;;;26.13;;
72201;SDS011;60105;54.956;73.412;2023-05-16T00:52:21;48.03;;;24.73;;
72201;SDS011;60105;54.956;73.412;2023-05-16T00:55:22;47.30;;;24.92;;
72201;SDS011;60105;54.956;73.412;2023-05-16T00:58:24;48.17;;;24.10;;
72201;SDS011;60105;54.956;73.412;2023-05-16T01:01:27;41.93;;;26.13;;
72201;SDS011;60105;54.956;73.412;2023-05-16T01:04:29;46.85;;;27.55;;
72201;SDS011;60105;54.956;73.412;2023-05-16T01:07:31;42.65;;;25.30;;
72201;SDS011;60105;54.956;73.412;2023-05-16T01:10:35;45.73;;;25.93;;
72201;SDS011;60105;54.956;73.412;2023-05-16T01:20:55;47.77;;;29.73;;
72201;SDS011;60105;54.956;73.412;2023-05-16T01:24:12;52.63;;;31.30;;
72201;SDS011;60105;54.956;73.412;2023-05-16T01:27:22;66.15;;;38.42;;
72201;SDS011;60105;54.956;73.412;2023-05-16T01:30:24;65.13;;;40.67;;
72201;SDS011;60105;54.956;73.412;2023-05-16T01:33:25;68.53;;;42.07;;
72201;SDS011;60105;54.956;73.412;2023-05-16T01:36:32;71.43;;;43.13;;
72201;SDS011;60105;54.956;73.412;2023-05-16T01:39:46;70.20;;;47.80;;
72201;SDS011;60105;54.956;73.412;2023-05-16T01:43:16;70.22;;;42.65;;
72201;SDS011;60105;54.956;73.412;2023-05-16T01:46:26;73.60;;;50.20;;
72201;SDS011;60105;54.956;73.412;2023-05-16T01:49:42;79.00;;;50.30;;
72201;SDS011;60105;54.956;73.412;2023-05-16T01:53:26;58.95;;;38.00;;
72201;SDS011;60105;54.956;73.412;2023-05-16T01:56:32;70.82;;;47.70;;
72201;SDS011;60105;54.956;73.412;2023-05-16T01:59:34;69.00;;;46.23;;
72201;SDS011;60105;54.956;73.412;2023-05-16T02:03:16;71.04;;;45.80;;
72201;SDS011;60105;54.956;73.412;2023-05-16T02:06:20;69.23;;;43.07;;
72201;SDS011;60105;54.956;73.412;2023-05-16T02:09:22;64.43;;;41.55;;
72201;SDS011;60105;54.956;73.412;2023-05-16T02:12:26;62.97;;;40.17;;
72201;SDS011;60105;54.956;73.412;2023-05-16T02:15:27;50.67;;;34.80;;
72201;SDS011;60105;54.956;73.412;2023-05-16T02:18:29;59.00;;;36.20;;
72201;SDS011;60105;54.956;73.412;2023-05-16T02:21:30;55.25;;;34.45;;
72201;SDS011;60105;54.956;73.412;2023-05-16T02:24:31;47.50;;;31.30;;
72201;SDS011;60105;54.956;73.412;2023-05-16T02:28:16;36.03;;;25.31;;
72201;SDS011;60105;54.956;73.412;2023-05-16T02:31:30;45.70;;;26.48;;
72201;SDS011;60105;54.956;73.412;2023-05-16T02:34:32;32.28;;;21.17;;
72201;SDS011;60105;54.956;73.412;2023-05-16T02:37:44;30.83;;;22.01;;
72201;SDS011;60105;54.956;73.412;2023-05-16T02:40:46;26.10;;;18.27;;
72201;SDS011;60105;54.956;73.412;2023-05-16T02:43:53;25.23;;;18.47;;
72201;SDS011;60105;54.956;73.412;2023-05-16T02:46:55;29.20;;;18.07;;
72201;SDS011;60105;54.956;73.412;2023-05-16T02:49:56;29.17;;;17.73;;
72201;SDS011;60105;54.956;73.412;2023-05-16T02:56:17;25.83;;;15.55;;
72201;SDS011;60105;54.956;73.412;2023-05-16T02:59:20;24.80;;;14.48;;
72201;SDS011;60105;54.956;73.412;2023-05-16T03:02:21;19.83;;;13.73;;
72201;SDS011;60105;54.956;73.412;2023-05-16T03:05:23;23.33;;;14.90;;
72201;SDS011;60105;54.956;73.412;2023-05-16T03:08:24;27.27;;;15.03;;
72201;SDS011;60105;54.956;73.412;2023-05-16T03:11:35;25.33;;;12.95;;
72201;SDS011;60105;54.956;73.412;2023-05-16T03:14:36;20.07;;;12.97;;
72201;SDS011;60105;54.956;73.412;2023-05-16T03:18:16;20.30;;;13.93;;
72201;SDS011;60105;54.956;73.412;2023-05-16T03:21:17;21.07;;;14.17;;
72201;SDS011;60105;54.956;73.412;2023-05-16T03:24:18;24.43;;;12.80;;
72201;SDS011;60105;54.956;73.412;2023-05-16T03:27:22;21.00;;;13.07;;
72201;SDS011;60105;54.956;73.412;2023-05-16T03:30:24;21.10;;;12.80;;
72201;SDS011;60105;54.956;73.412;2023-05-16T03:33:25;14.45;;;11.25;;
72201;SDS011;60105;54.956;73.412;2023-05-16T03:36:27;20.00;;;10.95;;
72201;SDS011;60105;54.956;73.412;2023-05-16T03:39:28;15.47;;;9.33;;
72201;SDS011;60105;54.956;73.412;2023-05-16T03:42:29;14.27;;;8.65;;
72201;SDS011;60105;54.956;73.412;2023-05-16T03:45:32;14.50;;;8.47;;
72201;SDS011;60105;54.956;73.412;2023-05-16T03:48:34;14.43;;;8.65;;
72201;SDS011;60105;54.956;73.412;2023-05-16T03:51:35;14.50;;;8.98;;
72201;SDS011;60105;54.956;73.412;2023-05-16T03:54:36;12.90;;;8.03;;
72201;SDS011;60105;54.956;73.412;2023-05-16T03:58:16;13.70;;;6.95;;
72201;SDS011;60105;54.956;73.412;2023-05-16T04:01:17;15.52;;;7.65;;
72201;SDS011;60105;54.956;73.412;2023-05-16T04:04:18;10.50;;;7.23;;
72201;SDS011;60105;54.956;73.412;2023-05-16T04:07:20;9.57;;;6.63;;
72201;SDS011;60105;54.956;73.412;2023-05-16T04:10:21;14.77;;;8.07;;
72201;SDS011;60105;54.956;73.412;2023-05-16T04:13:25;10.67;;;6.10;;
72201;SDS011;60105;54.956;73.412;2023-05-16T04:16:26;9.03;;;5.57;;
72201;SDS011;60105;54.956;73.412;2023-05-16T04:19:28;9.70;;;6.13;;
72201;SDS011;60105;54.956;73.412;2023-05-16T04:22:29;9.70;;;6.60;;
72201;SDS011;60105;54.956;73.412;2023-05-16T04:25:30;8.33;;;4.77;;
72201;SDS011;60105;54.956;73.412;2023-05-16T04:28:32;8.98;;;4.80;;
72201;SDS011;60105;54.956;73.412;2023-05-16T04:31:36;9.73;;;4.60;;
72201;SDS011;60105;54.956;73.412;2023-05-16T04:34:37;8.67;;;4.63;;
72201;SDS011;60105;54.956;73.412;2023-05-16T04:37:44;9.82;;;4.50;;
72201;SDS011;60105;54.956;73.412;2023-05-16T04:40:46;11.43;;;5.00;;
72201;SDS011;60105;54.956;73.412;2023-05-16T04:43:49;9.50;;;4.77;;
72201;SDS011;60105;54.956;73.412;2023-05-16T04:46:51;8.82;;;4.05;;
72201;SDS011;60105;54.956;73.412;2023-05-16T04:49:56;8.80;;;4.53;;
72201;SDS011;60105;54.956;73.412;2023-05-16T04:56:17;8.13;;;4.30;;
72201;SDS011;60105;54.956;73.412;2023-05-16T04:59:20;8.02;;;3.80;;
72201;SDS011;60105;54.956;73.412;2023-05-16T05:02:22;6.35;;;4.05;;
72201;SDS011;60105;54.956;73.412;2023-05-16T05:05:23;10.57;;;5.80;;
72201;SDS011;60105;54.956;73.412;2023-05-16T05:08:24;9.07;;;4.78;;
72201;SDS011;60105;54.956;73.412;2023-05-16T05:11:25;9.18;;;5.35;;
72201;SDS011;60105;54.956;73.412;2023-05-16T05:14:27;8.98;;;4.68;;
72201;SDS011;60105;54.956;73.412;2023-05-16T05:17:28;11.53;;;5.33;;
72201;SDS011;60105;54.956;73.412;2023-05-16T05:20:29;10.95;;;5.40;;
72201;SDS011;60105;54.956;73.412;2023-05-16T05:23:31;8.80;;;5.17;;
72201;SDS011;60105;54.956;73.412;2023-05-16T05:26:34;9.57;;;5.28;;
72201;SDS011;60105;54.956;73.412;2023-05-16T05:29:35;7.33;;;4.73;;
72201;SDS011;60105;54.956;73.412;2023-05-16T05:33:16;9.70;;;4.60;;
72201;SDS011;60105;54.956;73.412;2023-05-16T05:36:20;7.80;;;4.22;;
72201;SDS011;60105;54.956;73.412;2023-05-16T05:39:22;7.25;;;3.53;;
72201;SDS011;60105;54.956;73.412;2023-05-16T05:42:24;6.40;;;3.60;;
72201;SDS011;60105;54.956;73.412;2023-05-16T05:45:25;7.68;;;4.15;;
72201;SDS011;60105;54.956;73.412;2023-05-16T05:48:27;8.10;;;4.20;;
72201;SDS011;60105;54.956;73.412;2023-05-16T05:51:29;10.40;;;4.47;;
72201;SDS011;60105;54.956;73.412;2023-05-16T05:54:30;8.68;;;4.05;;
72201;SDS011;60105;54.956;73.412;2023-05-16T05:58:16;9.35;;;4.10;;
72201;SDS011;60105;54.956;73.412;2023-05-16T06:01:17;6.57;;;3.80;;
72201;SDS011;60105;54.956;73.412;2023-05-16T06:04:20;8.02;;;4.00;;
72201;SDS011;60105;54.956;73.412;2023-05-16T06:07:22;7.87;;;4.17;;
72201;SDS011;60105;54.956;73.412;2023-05-16T06:10:23;10.32;;;3.90;;
72201;SDS011;60105;54.956;73.412;2023-05-16T06:13:26;5.63;;;3.83;;
72201;SDS011;60105;54.956;73.412;2023-05-16T06:16:27;14.00;;;4.30;;
72201;SDS011;60105;54.956;73.412;2023-05-16T06:19:28;8.83;;;4.27;;
72201;SDS011;60105;54.956;73.412;2023-05-16T06:22:30;6.22;;;4.13;;
72201;SDS011;60105;54.956;73.412;2023-05-16T06:25:31;6.07;;;3.80;;
72201;SDS011;60105;54.956;73.412;2023-05-16T06:28:32;7.63;;;3.70;;
72201;SDS011;60105;54.956;73.412;2023-05-16T06:31:34;6.97;;;3.93;;
72201;SDS011;60105;54.956;73.412;2023-05-16T06:34:35;7.03;;;3.33;;
72201;SDS011;60105;54.956;73.412;2023-05-16T06:37:44;6.82;;;2.90;;
72201;SDS011;60105;54.956;73.412;2023-05-16T06:40:46;13.10;;;3.63;;
72201;SDS011;60105;54.956;73.412;2023-05-16T06:43:52;7.70;;;3.60;;
72201;SDS011;60105;54.956;73.412;2023-05-16T06:46:54;8.07;;;3.30;;
72201;SDS011;60105;54.956;73.412;2023-05-16T06:49:55;7.97;;;3.30;;
72201;SDS011;60105;54.956;73.412;2023-05-16T06:56:17;8.07;;;3.13;;
72201;SDS011;60105;54.956;73.412;2023-05-16T06:59:19;5.28;;;2.30;;
72201;SDS011;60105;54.956;73.412;2023-05-16T07:02:20;5.68;;;2.55;;
72201;SDS011;60105;54.956;73.412;2023-05-16T07:05:21;5.67;;;3.00;;
72201;SDS011;60105;54.956;73.412;2023-05-16T07:08:23;5.93;;;2.87;;
72201;SDS011;60105;54.956;73.412;2023-05-16T07:11:25;7.97;;;3.10;;
72201;SDS011;60105;54.956;73.412;2023-05-16T07:14:26;4.68;;;2.80;;
72201;SDS011;60105;54.956;73.412;2023-05-16T07:17:28;12.93;;;2.53;;
72201;SDS011;60105;54.956;73.412;2023-05-16T07:20:33;10.85;;;2.67;;
72201;SDS011;60105;54.956;73.412;2023-05-16T07:23:35;7.27;;;2.40;;
72201;SDS011;60105;54.956;73.412;2023-05-16T07:26:36;6.35;;;2.55;;
72201;SDS011;60105;54.956;73.412;2023-05-16T07:29:38;6.85;;;3.35;;
72201;SDS011;60105;54.956;73.412;2023-05-16T07:33:16;6.53;;;2.80;;
72201;SDS011;60105;54.956;73.412;2023-05-16T07:36:17;10.43;;;2.40;;
72201;SDS011;60105;54.956;73.412;2023-05-16T07:39:18;9.25;;;2.50;;
72201;SDS011;60105;54.956;73.412;2023-05-16T07:42:20;8.23;;;2.70;;
72201;SDS011;60105;54.956;73.412;2023-05-16T07:45:21;7.18;;;2.13;;
72201;SDS011;60105;54.956;73.412;2023-05-16T07:48:22;3.77;;;1.97;;
72201;SDS011;60105;54.956;73.412;2023-05-16T07:51:24;5.28;;;2.30;;
72201;SDS011;60105;54.956;73.412;2023-05-16T07:54:25;9.37;;;2.60;;
72201;SDS011;60105;54.956;73.412;2023-05-16T07:57:26;10.03;;;2.53;;
72201;SDS011;60105;54.956;73.412;2023-05-16T08:00:28;5.73;;;2.57;;
72201;SDS011;60105;54.956;73.412;2023-05-16T08:03:29;6.13;;;2.90;;
72201;SDS011;60105;54.956;73.412;2023-05-16T08:06:31;7.47;;;2.50;;
72201;SDS011;60105;54.956;73.412;2023-05-16T08:09:33;4.73;;;2.10;;
72201;SDS011;60105;54.956;73.412;2023-05-16T08:13:16;5.98;;;2.33;;
72201;SDS011;60105;54.956;73.412;2023-05-16T08:16:17;6.65;;;3.00;;
72201;SDS011;60105;54.956;73.412;2023-05-16T08:19:18;5.33;;;2.57;;
72201;SDS011;60105;54.956;73.412;2023-05-16T08:22:20;5.88;;;3.10;;
72201;SDS011;60105;54.956;73.412;2023-05-16T08:25:21;10.80;;;3.17;;
72201;SDS011;60105;54.956;73.412;2023-05-16T08:28:23;4.65;;;2.47;;
72201;SDS011;60105;54.956;73.412;2023-05-16T08:31:24;7.03;;;2.85;;
72201;SDS011;60105;54.956;73.412;2023-05-16T08:34:25;11.93;;;3.80;;
72201;SDS011;60105;54.956;73.412;2023-05-16T08:37:27;11.77;;;3.70;;
72201;SDS011;60105;54.956;73.412;2023-05-16T08:40:28;6.10;;;3.20;;
72201;SDS011;60105;54.956;73.412;2023-05-16T08:43:31;15.15;;;3.63;;
72201;SDS011;60105;54.956;73.412;2023-05-16T08:46:36;11.45;;;3.80;;
72201;SDS011;60105;54.956;73.412;2023-05-16T08:49:41;11.97;;;3.20;;
72201;SDS011;60105;54.956;73.412;2023-05-16T08:53:16;8.40;;;3.15;;
72201;SDS011;60105;54.956;73.412;2023-05-16T08:56:22;7.78;;;3.72;;
72201;SDS011;60105;54.956;73.412;2023-05-16T08:59:24;10.07;;;4.17;;
72201;SDS011;60105;54.956;73.412;2023-05-16T09:02:29;10.85;;;4.18;;
72201;SDS011;60105;54.956;73.412;2023-05-16T09:05:30;8.30;;;3.23;;
72201;SDS011;60105;54.956;73.412;2023-05-16T09:08:34;6.45;;;3.70;;
72201;SDS011;60105;54.956;73.412;2023-05-16T09:11:35;8.00;;;3.67;;
72201;SDS011;60105;54.956;73.412;2023-05-16T09:14:37;10.73;;;4.23;;
72201;SDS011;60105;54.956;73.412;2023-05-16T09:18:16;9.30;;;3.83;;
72201;SDS011;60105;54.956;73.412;2023-05-16T09:21:18;9.97;;;3.87;;
72201;SDS011;60105;54.956;73.412;2023-05-16T09:24:19;9.60;;;3.90;;
72201;SDS011;60105;54.956;73.412;2023-05-16T09:27:30;7.63;;;3.35;;
72201;SDS011;60105;54.956;73.412;2023-05-16T09:30:32;8.60;;;2.63;;
72201;SDS011;60105;54.956;73.412;2023-05-16T09:33:33;8.47;;;2.97;;
72201;SDS011;60105;54.956;73.412;2023-05-16T09:36:35;7.28;;;3.15;;
72201;SDS011;60105;54.956;73.412;2023-05-16T09:43:16;10.38;;;3.75;;
72201;SDS011;60105;54.956;73.412;2023-05-16T09:46:18;4.63;;;2.10;;
72201;SDS011;60105;54.956;73.412;2023-05-16T09:49:26;9.73;;;2.47;;
72201;SDS011;60105;54.956;73.412;2023-05-16T09:52:27;6.77;;;2.00;;
72201;SDS011;60105;54.956;73.412;2023-05-16T09:55:30;8.87;;;2.10;;
72201;SDS011;60105;54.956;73.412;2023-05-16T09:58:33;4.72;;;1.65;;
72201;SDS011;60105;54.956;73.412;2023-05-16T10:01:35;7.87;;;1.80;;
72201;SDS011;60105;54.956;73.412;2023-05-16T10:04:38;7.82;;;2.20;;
72201;SDS011;60105;54.956;73.412;2023-05-16T10:07:44;7.20;;;2.03;;
72201;SDS011;60105;54.956;73.412;2023-05-16T10:10:47;10.25;;;2.50;;
72201;SDS011;60105;54.956;73.412;2023-05-16T10:13:51;11.10;;;2.92;;
72201;SDS011;60105;54.956;73.412;2023-05-16T10:16:53;9.30;;;2.70;;
72201;SDS011;60105;54.956;73.412;2023-05-16T10:19:57;7.50;;;2.65;;
72201;SDS011;60105;54.956;73.412;2023-05-16T10:26:19;9.55;;;2.22;;
72201;SDS011;60105;54.956;73.412;2023-05-16T10:29:21;7.73;;;2.00;;
72201;SDS011;60105;54.956;73.412;2023-05-16T10:32:24;9.68;;;2.58;;
72201;SDS011;60105;54.956;73.412;2023-05-16T10:35:27;6.40;;;2.60;;
72201;SDS011;60105;54.956;73.412;2023-05-16T10:38:28;8.13;;;2.30;;
72201;SDS011;60105;54.956;73.412;2023-05-16T10:41:31;11.68;;;2.60;;
72201;SDS011;60105;54.956;73.412;2023-05-16T10:44:34;10.83;;;2.40;;
72201;SDS011;60105;54.956;73.412;2023-05-16T10:48:16;9.48;;;2.60;;
72201;SDS011;60105;54.956;73.412;2023-05-16T10:54:33;5.20;;;2.30;;
72201;SDS011;60105;54.956;73.412;2023-05-16T10:58:22;8.00;;;2.88;;
72201;SDS011;60105;54.956;73.412;2023-05-16T11:01:33;9.95;;;2.78;;
72201;SDS011;60105;54.956;73.412;2023-05-16T11:04:45;16.60;;;3.00;;
72201;SDS011;60105;54.956;73.412;2023-05-16T11:08:00;18.10;;;3.10;;
72201;SDS011;60105;54.956;73.412;2023-05-16T11:14:54;12.57;;;2.22;;
72201;SDS011;60105;54.956;73.412;2023-05-16T11:21:18;11.07;;;3.67;;
72201;SDS011;60105;54.956;73.412;2023-05-16T11:24:26;11.47;;;3.80;;
72201;SDS011;60105;54.956;73.412;2023-05-16T11:27:33;9.90;;;3.38;;
72201;SDS011;60105;54.956;73.412;2023-05-16T11:30:56;13.63;;;4.40;;
72201;SDS011;60105;54.956;73.412;2023-05-16T11:34:00;9.20;;;3.83;;
72201;SDS011;60105;54.956;73.412;2023-05-16T11:37:01;9.75;;;4.28;;
72201;SDS011;60105;54.956;73.412;2023-05-16T11:40:03;9.25;;;4.45;;
72201;SDS011;60105;54.956;73.412;2023-05-16T11:46:20;7.47;;;3.43;;
72201;SDS011;60105;54.956;73.412;2023-05-16T11:49:22;13.90;;;3.67;;
72201;SDS011;60105;54.956;73.412;2023-05-16T11:52:24;11.13;;;4.10;;
72201;SDS011;60105;54.956;73.412;2023-05-16T11:55:26;10.50;;;4.40;;
72201;SDS011;60105;54.956;73.412;2023-05-16T11:58:29;13.63;;;4.03;;
72201;SDS011;60105;54.956;73.412;2023-05-16T12:01:35;13.67;;;6.00;;
72201;SDS011;60105;54.956;73.412;2023-05-16T12:04:37;12.20;;;6.20;;
72201;SDS011;60105;54.956;73.412;2023-05-16T12:07:45;15.07;;;8.43;;
72201;SDS011;60105;54.956;73.412;2023-05-16T12:10:47;15.27;;;7.60;;
72201;SDS011;60105;54.956;73.412;2023-05-16T12:13:50;19.63;;;8.07;;
72201;SDS011;60105;54.956;73.412;2023-05-16T12:16:52;14.05;;;7.55;;
72201;SDS011;60105;54.956;73.412;2023-05-16T12:19:53;11.70;;;7.20;;
72201;SDS011;60105;54.956;73.412;2023-05-16T12:26:22;13.60;;;7.70;;
72201;SDS011;60105;54.956;73.412;2023-05-16T12:29:26;18.40;;;9.00;;
72201;SDS011;60105;54.956;73.412;2023-05-16T12:32:27;11.32;;;8.80;;
72201;SDS011;60105;54.956;73.412;2023-05-16T12:35:29;14.40;;;9.77;;
72201;SDS011;60105;54.956;73.412;2023-05-16T12:38:32;15.23;;;10.10;;
72201;SDS011;60105;54.956;73.412;2023-05-16T12:41:34;17.85;;;11.98;;
72201;SDS011;60105;54.956;73.412;2023-05-16T12:44:43;21.93;;;13.60;;
72201;SDS011;60105;54.956;73.412;2023-05-16T12:48:16;19.08;;;12.98;;
72201;SDS011;60105;54.956;73.412;2023-05-16T12:51:18;23.85;;;14.18;;
72201;SDS011;60105;54.956;73.412;2023-05-16T12:54:20;27.93;;;14.23;;
72201;SDS011;60105;54.956;73.412;2023-05-16T12:57:25;23.90;;;14.38;;
72201;SDS011;60105;54.956;73.412;2023-05-16T13:00:26;19.75;;;13.23;;
72201;SDS011;60105;54.956;73.412;2023-05-16T13:03:28;18.25;;;12.77;;
72201;SDS011;60105;54.956;73.412;2023-05-16T13:06:30;19.03;;;13.00;;
72201;SDS011;60105;54.956;73.412;2023-05-16T13:09:32;20.98;;;12.23;;
72201;SDS011;60105;54.956;73.412;2023-05-16T13:13:16;21.85;;;12.88;;
72201;SDS011;60105;54.956;73.412;2023-05-16T13:16:18;27.65;;;15.27;;
72201;SDS011;60105;54.956;73.412;2023-05-16T13:19:20;23.30;;;13.70;;
72201;SDS011;60105;54.956;73.412;2023-05-16T13:22:22;22.40;;;16.67;;
72201;SDS011;60105;54.956;73.412;2023-05-16T13:25:24;20.35;;;15.30;;
72201;SDS011;60105;54.956;73.412;2023-05-16T13:28:25;23.27;;;15.40;;
72201;SDS011;60105;54.956;73.412;2023-05-16T13:31:26;28.60;;;17.30;;
72201;SDS011;60105;54.956;73.412;2023-05-16T13:34:28;26.95;;;17.42;;
72201;SDS011;60105;54.956;73.412;2023-05-16T13:37:29;29.42;;;17.88;;
72201;SDS011;60105;54.956;73.412;2023-05-16T13:40:32;24.90;;;16.50;;
72201;SDS011;60105;54.956;73.412;2023-05-16T13:43:33;27.47;;;17.47;;
72201;SDS011;60105;54.956;73.412;2023-05-16T13:46:34;25.77;;;15.82;;
72201;SDS011;60105;54.956;73.412;2023-05-16T13:49:36;25.50;;;16.67;;
72201;SDS011;60105;54.956;73.412;2023-05-16T13:53:16;26.90;;;15.80;;
72201;SDS011;60105;54.956;73.412;2023-05-16T13:56:17;19.97;;;13.53;;
72201;SDS011;60105;54.956;73.412;2023-05-16T13:59:18;23.50;;;12.52;;
72201;SDS011;60105;54.956;73.412;2023-05-16T14:02:20;18.65;;;10.98;;
72201;SDS011;60105;54.956;73.412;2023-05-16T14:05:21;18.90;;;11.13;;
72201;SDS011;60105;54.956;73.412;2023-05-16T14:08:22;19.33;;;9.60;;
72201;SDS011;60105;54.956;73.412;2023-05-16T14:11:23;16.90;;;9.25;;
72201;SDS011;60105;54.956;73.412;2023-05-16T14:14:27;12.65;;;7.90;;
72201;SDS011;60105;54.956;73.412;2023-05-16T14:17:28;11.73;;;7.30;;
72201;SDS011;60105;54.956;73.412;2023-05-16T14:20:29;14.63;;;6.78;;
72201;SDS011;60105;54.956;73.412;2023-05-16T14:23:31;12.13;;;6.00;;
72201;SDS011;60105;54.956;73.412;2023-05-16T14:26:32;12.68;;;6.10;;
72201;SDS011;60105;54.956;73.412;2023-05-16T14:29:33;13.27;;;6.23;;
72201;SDS011;60105;54.956;73.412;2023-05-16T14:33:16;14.73;;;6.93;;
72201;SDS011;60105;54.956;73.412;2023-05-16T14:36:17;10.60;;;5.95;;
72201;SDS011;60105;54.956;73.412;2023-05-16T14:39:18;13.03;;;5.93;;
72201;SDS011;60105;54.956;73.412;2023-05-16T14:42:20;12.23;;;5.60;;
72201;SDS011;60105;54.956;73.412;2023-05-16T14:45:22;12.65;;;5.30;;
72201;SDS011;60105;54.956;73.412;2023-05-16T14:48:23;15.87;;;5.10;;
72201;SDS011;60105;54.956;73.412;2023-05-16T14:51:24;12.52;;;5.35;;
72201;SDS011;60105;54.956;73.412;2023-05-16T14:54:26;10.27;;;6.43;;
72201;SDS011;60105;54.956;73.412;2023-05-16T14:57:27;12.63;;;6.32;;
72201;SDS011;60105;54.956;73.412;2023-05-16T15:00:29;19.93;;;9.60;;
72201;SDS011;60105;54.956;73.412;2023-05-16T15:03:31;12.93;;;7.10;;
72201;SDS011;60105;54.956;73.412;2023-05-16T15:06:33;19.42;;;8.77;;
72201;SDS011;60105;54.956;73.412;2023-05-16T15:09:35;13.63;;;6.90;;
72201;SDS011;60105;54.956;73.412;2023-05-16T15:13:16;14.22;;;8.90;;
72201;SDS011;60105;54.956;73.412;2023-05-16T15:16:17;16.57;;;8.30;;
72201;SDS011;60105;54.956;73.412;2023-05-16T15:19:19;18.13;;;9.35;;
72201;SDS011;60105;54.956;73.412;2023-05-16T15:22:20;13.88;;;8.02;;
72201;SDS011;60105;54.956;73.412;2023-05-16T15:25:24;14.57;;;8.40;;
72201;SDS011;60105;54.956;73.412;2023-05-16T15:28:26;18.53;;;8.70;;
72201;SDS011;60105;54.956;73.412;2023-05-16T15:31:27;17.20;;;8.45;;
72201;SDS011;60105;54.956;73.412;2023-05-16T15:34:32;17.42;;;8.35;;
72201;SDS011;60105;54.956;73.412;2023-05-16T15:37:44;14.27;;;7.25;;
72201;SDS011;60105;54.956;73.412;2023-05-16T15:40:46;9.95;;;5.95;;
72201;SDS011;60105;54.956;73.412;2023-05-16T15:45:13;9.35;;;5.43;;
72201;SDS011;60105;54.956;73.412;2023-05-16T15:48:14;8.75;;;5.00;;
72201;SDS011;60105;54.956;73.412;2023-05-16T15:51:16;10.70;;;4.70;;
72201;SDS011;60105;54.956;73.412;2023-05-16T15:54:17;12.37;;;5.27;;
72201;SDS011;60105;54.956;73.412;2023-05-16T16:00:40;10.82;;;5.53;;
72201;SDS011;60105;54.956;73.412;2023-05-16T16:03:42;10.23;;;4.83;;
72201;SDS011;60105;54.956;73.412;2023-05-16T16:06:43;11.90;;;4.95;;
72201;SDS011;60105;54.956;73.412;2023-05-16T16:09:45;7.32;;;4.50;;
72201;SDS011;60105;54.956;73.412;2023-05-16T16:13:02;5.17;;;4.13;;
72201;SDS011;60105;54.956;73.412;2023-05-16T16:16:04;11.93;;;4.43;;
72201;SDS011;60105;54.956;73.412;2023-05-16T16:19:06;6.50;;;3.60;;
72201;SDS011;60105;54.956;73.412;2023-05-16T16:22:07;6.85;;;3.83;;
72201;SDS011;60105;54.956;73.412;2023-05-16T16:25:09;10.70;;;3.78;;
72201;SDS011;60105;54.956;73.412;2023-05-16T16:28:10;9.17;;;3.87;;
72201;SDS011;60105;54.956;73.412;2023-05-16T16:31:11;7.00;;;3.47;;
72201;SDS011;60105;54.956;73.412;2023-05-16T16:34:12;8.98;;;4.07;;
72201;SDS011;60105;54.956;73.412;2023-05-16T16:37:39;18.05;;;3.35;;
72201;SDS011;60105;54.956;73.412;2023-05-16T16:40:40;6.57;;;3.58;;
72201;SDS011;60105;54.956;73.412;2023-05-16T16:43:41;8.68;;;4.32;;
72201;SDS011;60105;54.956;73.412;2023-05-16T16:46:43;8.82;;;4.18;;
72201;SDS011;60105;54.956;73.412;2023-05-16T16:49:44;8.93;;;4.10;;
72201;SDS011;60105;54.956;73.412;2023-05-16T16:52:45;9.77;;;4.07;;
72201;SDS011;60105;54.956;73.412;2023-05-16T16:55:47;7.15;;;3.53;;
72201;SDS011;60105;54.956;73.412;2023-05-16T16:58:48;10.32;;;4.70;;
72201;SDS011;60105;54.956;73.412;2023-05-16T17:01:50;11.67;;;3.53;;
72201;SDS011;60105;54.956;73.412;2023-05-16T17:04:51;8.15;;;4.10;;
72201;SDS011;60105;54.956;73.412;2023-05-16T17:07:53;10.10;;;4.73;;
72201;SDS011;60105;54.956;73.412;2023-05-16T17:10:54;9.75;;;4.00;;
72201;SDS011;60105;54.956;73.412;2023-05-16T17:13:55;13.70;;;4.40;;
72201;SDS011;60105;54.956;73.412;2023-05-16T17:17:39;9.00;;;4.50;;
72201;SDS011;60105;54.956;73.412;2023-05-16T17:20:40;9.27;;;4.40;;
72201;SDS011;60105;54.956;73.412;2023-05-16T17:23:41;7.80;;;4.70;;
72201;SDS011;60105;54.956;73.412;2023-05-16T17:26:42;11.93;;;4.37;;
72201;SDS011;60105;54.956;73.412;2023-05-16T17:29:44;10.57;;;5.40;;
72201;SDS011;60105;54.956;73.412;2023-05-16T17:32:45;6.50;;;4.77;;
72201;SDS011;60105;54.956;73.412;2023-05-16T17:35:46;10.50;;;5.65;;
72201;SDS011;60105;54.956;73.412;2023-05-16T17:38:48;9.67;;;4.87;;
72201;SDS011;60105;54.956;73.412;2023-05-16T17:41:49;11.05;;;5.13;;
72201;SDS011;60105;54.956;73.412;2023-05-16T17:44:53;12.67;;;5.30;;
72201;SDS011;60105;54.956;73.412;2023-05-16T17:47:55;8.97;;;4.73;;
72201;SDS011;60105;54.956;73.412;2023-05-16T17:50:56;12.35;;;4.88;;
72201;SDS011;60105;54.956;73.412;2023-05-16T17:53:58;17.63;;;5.15;;
72201;SDS011;60105;54.956;73.412;2023-05-16T17:57:39;9.07;;;4.93;;
72201;SDS011;60105;54.956;73.412;2023-05-16T18:00:40;10.57;;;5.60;;
72201;SDS011;60105;54.956;73.412;2023-05-16T18:03:42;15.77;;;5.67;;
72201;SDS011;60105;54.956;73.412;2023-05-16T18:07:39;11.93;;;5.38;;
72201;SDS011;60105;54.956;73.412;2023-05-16T18:10:41;9.18;;;5.70;;
72201;SDS011;60105;54.956;73.412;2023-05-16T18:13:42;11.02;;;5.90;;
72201;SDS011;60105;54.956;73.412;2023-05-16T18:16:45;11.38;;;5.85;;
72201;SDS011;60105;54.956;73.412;2023-05-16T18:19:46;11.27;;;5.60;;
72201;SDS011;60105;54.956;73.412;2023-05-16T18:22:48;8.20;;;4.93;;
72201;SDS011;60105;54.956;73.412;2023-05-16T18:25:51;9.25;;;5.88;;
72201;SDS011;60105;54.956;73.412;2023-05-16T18:28:53;13.50;;;5.53;;
72201;SDS011;60105;54.956;73.412;2023-05-16T18:32:39;10.03;;;5.89;;
72201;SDS011;60105;54.956;73.412;2023-05-16T18:35:40;9.77;;;5.45;;
72201;SDS011;60105;54.956;73.412;2023-05-16T18:38:41;10.45;;;6.03;;
72201;SDS011;60105;54.956;73.412;2023-05-16T18:41:43;8.57;;;5.67;;
72201;SDS011;60105;54.956;73.412;2023-05-16T18:44:47;8.43;;;5.47;;
72201;SDS011;60105;54.956;73.412;2023-05-16T18:47:50;18.93;;;5.10;;
72201;SDS011;60105;54.956;73.412;2023-05-16T18:50:52;8.75;;;5.60;;
72201;SDS011;60105;54.956;73.412;2023-05-16T18:53:53;9.90;;;5.50;;